createdAt,value
2018-04-25T00:00:09.722Z,92.20
2018-04-25T00:02:39.164Z,92.30
2018-04-25T00:05:08.525Z,92.30
2018-04-25T00:07:37.929Z,92.30
2018-04-25T00:10:07.433Z,92.30
2018-04-25T00:12:36.849Z,92.40
2018-04-25T00:15:06.078Z,92.20
2018-04-25T00:17:35.289Z,92.20
2018-04-25T00:20:04.622Z,92.30
2018-04-25T00:22:33.827Z,92.60
2018-04-25T00:25:03.061Z,92.60
2018-04-25T00:27:32.394Z,92.60
2018-04-25T00:30:01.599Z,92.60
2018-04-25T00:32:30.848Z,92.50
2018-04-25T00:35:00.237Z,92.40
2018-04-25T00:37:29.653Z,92.40
2018-04-25T00:39:59.603Z,92.40
2018-04-25T00:42:28.878Z,92.40
2018-04-25T00:44:58.285Z,92.40
2018-04-25T00:47:27.588Z,92.60
2018-04-25T00:49:57.666Z,92.50
2018-04-25T00:52:26.945Z,92.50
2018-04-25T00:54:56.948Z,92.40
2018-04-25T00:57:26.695Z,92.50
2018-04-25T00:59:57.533Z,92.40
2018-04-25T01:02:26.835Z,92.30
2018-04-25T01:04:56.264Z,92.90
2018-04-25T01:07:26.358Z,93.30
2018-04-25T01:09:55.581Z,93.30
2018-04-25T01:12:24.761Z,93.50
2018-04-25T01:14:54.014Z,93.50
2018-04-25T01:17:24.240Z,93.60
2018-04-25T01:19:53.774Z,93.80
2018-04-25T01:22:23.182Z,93.90
2018-04-25T01:25:02.980Z,94.00
2018-04-25T01:27:33.765Z,94.10
2018-04-25T01:30:02.965Z,94.20
2018-04-25T01:32:35.332Z,94.40
2018-04-25T01:35:04.604Z,94.40
2018-04-25T01:37:35.773Z,94.60
2018-04-25T01:40:06.553Z,94.80
2018-04-25T01:42:43.516Z,94.50
2018-04-25T01:45:24.301Z,94.40
2018-04-25T01:47:59.148Z,94.50
2018-04-25T01:50:39.115Z,94.50
2018-04-25T01:53:20.127Z,94.60
2018-04-25T01:56:07.027Z,94.60
2018-04-25T01:58:54.262Z,94.50
2018-04-25T02:01:29.081Z,94.60
2018-04-25T02:03:59.915Z,94.90
2018-04-25T02:06:29.675Z,95.10
2018-04-25T02:08:59.640Z,95.30
2018-04-25T02:11:28.992Z,95.20
2018-04-25T02:14:00.220Z,95.70
2018-04-25T02:16:29.585Z,95.40
2018-04-25T02:18:58.875Z,95.50
2018-04-25T02:21:28.081Z,95.30
2018-04-25T02:23:57.286Z,95.30
2018-04-25T02:26:26.793Z,95.50
2018-04-25T02:28:55.992Z,95.50
2018-04-25T02:31:25.272Z,95.60
2018-04-25T02:33:54.510Z,95.70
2018-04-25T02:36:23.754Z,95.70
2018-04-25T02:38:52.985Z,95.80
2018-04-25T02:41:22.175Z,96.00
2018-04-25T02:43:51.583Z,96.30
2018-04-25T02:46:20.871Z,96.40
2018-04-25T02:48:50.130Z,96.40
2018-04-25T02:51:19.398Z,96.80
2018-04-25T02:53:48.594Z,96.80
2018-04-25T02:56:21.409Z,96.90
2018-04-25T02:58:51.638Z,96.70
2018-04-25T03:01:28.472Z,96.70
2018-04-25T03:03:57.684Z,96.40
2018-04-25T03:06:27.071Z,96.30
2018-04-25T03:08:56.320Z,96.30
2018-04-25T03:11:26.286Z,96.60
2018-04-25T03:13:55.530Z,96.90
2018-04-25T03:16:25.693Z,96.90
2018-04-25T03:18:54.950Z,96.80
2018-04-25T03:21:25.012Z,96.80
2018-04-25T03:23:54.275Z,96.80
2018-04-25T03:26:23.473Z,96.80
2018-04-25T03:28:52.745Z,97.10
2018-04-25T03:31:22.213Z,97.20
2018-04-25T03:33:51.512Z,97.20
2018-04-25T03:36:20.912Z,97.20
2018-04-25T03:38:50.110Z,97.20
2018-04-25T03:41:19.410Z,97.20
2018-04-25T03:43:48.676Z,97.20
2018-04-25T03:46:18.640Z,97.10
2018-04-25T03:48:47.835Z,97.10
2018-04-25T03:51:17.149Z,96.90
2018-04-25T03:53:46.481Z,97.00
2018-04-25T03:56:15.758Z,97.00
2018-04-25T03:58:44.975Z,97.00
2018-04-25T04:01:15.069Z,97.00
2018-04-25T04:03:44.308Z,97.00
2018-04-25T04:06:13.742Z,96.90
2018-04-25T04:08:42.988Z,96.90
2018-04-25T04:11:13.016Z,96.80
2018-04-25T04:13:43.181Z,96.70
2018-04-25T04:16:12.583Z,96.70
2018-04-25T04:18:41.883Z,96.60
2018-04-25T04:21:11.082Z,96.50
2018-04-25T04:23:40.381Z,96.50
2018-04-25T04:26:09.783Z,96.30
2018-04-25T04:28:40.155Z,95.40
2018-04-25T04:31:09.404Z,94.90
2018-04-25T04:33:38.708Z,94.70
2018-04-25T04:36:07.917Z,94.20
2018-04-25T04:38:37.156Z,94.00
2018-04-25T04:41:07.329Z,93.40
2018-04-25T04:43:36.601Z,93.40
2018-04-25T04:46:05.871Z,93.00
2018-04-25T04:48:35.124Z,92.80
2018-04-25T04:51:04.512Z,92.50
2018-04-25T04:53:33.836Z,92.40
2018-04-25T04:56:03.134Z,92.30
2018-04-25T04:58:32.347Z,92.30
2018-04-25T05:01:01.637Z,92.30
2018-04-25T05:03:31.130Z,92.30
2018-04-25T05:06:00.429Z,92.30
2018-04-25T05:08:29.867Z,92.40
2018-04-25T05:10:59.828Z,92.20
2018-04-25T05:13:28.998Z,92.10
2018-04-25T05:15:58.262Z,91.90
2018-04-25T05:18:27.554Z,91.60
2018-04-25T05:20:56.968Z,90.90
2018-04-25T05:23:26.180Z,90.30
2018-04-25T05:25:55.548Z,89.70
2018-04-25T05:28:24.760Z,88.80
2018-04-25T05:30:53.954Z,87.60
2018-04-25T05:33:23.205Z,86.90
2018-04-25T05:35:53.219Z,85.60
2018-04-25T05:38:22.462Z,85.20
2018-04-25T05:40:51.663Z,84.60
2018-04-25T05:43:21.006Z,84.30
2018-04-25T05:45:50.209Z,83.30
2018-04-25T05:48:19.557Z,83.30
2018-04-25T05:50:48.720Z,82.60
2018-04-25T05:53:18.057Z,82.50
2018-04-25T05:55:47.323Z,81.20
2018-04-25T05:58:16.576Z,81.20
2018-04-25T06:00:45.889Z,81.30
2018-04-25T06:03:15.177Z,81.50
2018-04-25T06:05:44.356Z,82.00
2018-04-25T06:08:13.649Z,82.10
2018-04-25T06:10:42.860Z,81.60
2018-04-25T06:13:12.136Z,81.30
2018-04-25T06:15:41.756Z,80.10
2018-04-25T06:18:10.996Z,79.40
2018-04-25T06:20:40.213Z,78.10
2018-04-25T06:23:09.558Z,76.70
2018-04-25T06:25:38.808Z,76.10
2018-04-25T06:28:08.118Z,76.20
2018-04-25T06:30:37.387Z,76.50
2018-04-25T06:33:06.858Z,76.10
2018-04-25T06:35:36.118Z,75.80
2018-04-25T06:38:05.398Z,75.40
2018-04-25T06:40:34.576Z,74.70
2018-04-25T06:43:03.900Z,74.20
2018-04-25T06:45:33.898Z,73.20
2018-04-25T06:48:03.085Z,73.20
2018-04-25T06:50:32.305Z,73.10
2018-04-25T06:53:01.671Z,72.00
2018-04-25T06:55:30.841Z,70.50
2018-04-25T06:58:00.273Z,69.80
2018-04-25T07:00:29.502Z,68.70
2018-04-25T07:02:59.479Z,68.30
2018-04-25T07:05:28.792Z,68.30
2018-04-25T07:07:58.123Z,68.50
2018-04-25T07:10:27.386Z,68.10
2018-04-25T07:12:56.713Z,67.90
2018-04-25T07:15:26.753Z,67.40
2018-04-25T07:17:56.677Z,66.80
2018-04-25T07:20:26.670Z,65.80
2018-04-25T07:22:56.651Z,65.50
2018-04-25T07:25:25.907Z,65.50
2018-04-25T07:27:55.112Z,65.00
2018-04-25T07:30:24.401Z,65.40
2018-04-25T07:32:54.376Z,64.60
2018-04-25T07:35:23.678Z,64.50
2018-04-25T07:37:53.682Z,64.50
2018-04-25T07:40:23.029Z,64.10
2018-04-25T07:42:52.189Z,63.60
2018-04-25T07:45:21.398Z,62.40
2018-04-25T07:47:50.799Z,62.20
2018-04-25T07:50:20.401Z,61.40
2018-04-25T07:52:49.709Z,60.40
2018-04-25T07:55:19.004Z,59.40
2018-04-25T07:57:48.573Z,58.50
2018-04-25T08:00:21.892Z,56.90
2018-04-25T08:02:51.305Z,56.90
2018-04-25T08:05:20.589Z,56.50
2018-04-25T08:07:49.817Z,57.60
2018-04-25T08:10:22.271Z,55.50
2018-04-25T08:13:03.383Z,55.00
2018-04-25T08:15:44.547Z,53.80
2018-04-25T08:18:26.463Z,53.60
2018-04-25T08:24:04.179Z,51.40
2018-04-25T08:26:33.537Z,51.30
2018-04-25T08:29:02.799Z,50.50
2018-04-25T08:31:32.151Z,50.00
2018-04-25T08:34:02.172Z,51.40
2018-04-25T08:36:31.648Z,50.80
2018-04-25T08:39:01.190Z,51.20
2018-04-25T08:41:30.486Z,51.20
2018-04-25T08:44:00.558Z,50.90
2018-04-25T08:46:29.844Z,50.90
2018-04-25T08:48:59.062Z,49.80
2018-04-25T08:51:28.287Z,49.20
2018-04-25T08:53:57.562Z,49.40
2018-04-25T08:56:26.792Z,50.20
2018-04-25T08:58:56.196Z,50.20
2018-04-25T09:01:25.493Z,49.90
2018-04-25T09:03:54.859Z,49.60
2018-04-25T09:06:24.177Z,50.20
2018-04-25T09:08:53.369Z,50.50
2018-04-25T09:11:22.545Z,49.80
2018-04-25T09:13:51.872Z,49.20
2018-04-25T09:16:21.275Z,48.90
2018-04-25T09:18:50.499Z,48.60
2018-04-25T09:21:20.444Z,48.10
2018-04-25T09:23:50.355Z,48.10
2018-04-25T09:26:19.488Z,48.10
2018-04-25T09:28:48.747Z,48.00
2018-04-25T09:31:18.006Z,47.00
2018-04-25T09:33:47.301Z,46.60
2018-04-25T09:36:16.585Z,46.40
2018-04-25T09:38:45.794Z,46.20
2018-04-25T09:41:15.301Z,46.30
2018-04-25T09:43:45.412Z,46.70
2018-04-25T09:46:14.616Z,46.70
2018-04-25T09:48:43.897Z,47.30
2018-04-25T09:51:13.117Z,48.50
2018-04-25T09:53:42.313Z,49.20
2018-04-25T09:56:12.433Z,49.60
2018-04-25T09:58:41.704Z,49.60
2018-04-25T10:01:10.977Z,49.10
2018-04-25T10:03:44.025Z,47.60
2018-04-25T10:06:13.528Z,47.60
2018-04-25T10:08:42.662Z,48.40
2018-04-25T10:11:11.907Z,49.60
2018-04-25T10:13:41.117Z,50.10
2018-04-25T10:16:10.451Z,50.20
2018-04-25T10:18:39.661Z,49.90
2018-04-25T10:21:09.649Z,48.30
2018-04-25T10:23:38.838Z,48.30
2018-04-25T10:26:08.027Z,49.10
2018-04-25T10:28:37.207Z,48.60
2018-04-25T10:31:07.135Z,47.80
2018-04-25T10:33:36.290Z,47.80
2018-04-25T10:36:06.373Z,47.20
2018-04-25T10:38:35.669Z,47.20
2018-04-25T10:41:04.913Z,45.40
2018-04-25T10:43:34.221Z,45.10
2018-04-25T10:46:03.454Z,45.60
2018-04-25T10:48:32.796Z,46.30
2018-04-25T10:51:02.760Z,46.60
2018-04-25T10:53:31.963Z,46.70
2018-04-25T10:56:01.172Z,47.10
2018-04-25T10:58:30.536Z,47.30
2018-04-25T11:00:59.725Z,46.80
2018-04-25T11:03:29.887Z,44.90
2018-04-25T11:05:59.084Z,44.90
2018-04-25T11:08:28.237Z,44.10
2018-04-25T11:10:58.213Z,45.10
2018-04-25T11:13:27.600Z,45.10
2018-04-25T11:15:56.797Z,45.10
2018-04-25T11:18:26.190Z,44.30
2018-04-25T11:20:55.494Z,44.40
2018-04-25T11:23:24.698Z,43.50
2018-04-25T11:25:54.001Z,42.90
2018-04-25T11:28:23.299Z,40.70
2018-04-25T11:30:52.494Z,41.80
2018-04-25T11:33:21.796Z,42.40
2018-04-25T11:35:50.995Z,41.90
2018-04-25T11:38:20.214Z,40.00
2018-04-25T11:40:49.401Z,40.40
2018-04-25T11:43:18.578Z,41.30
2018-04-25T11:45:47.847Z,41.30
2018-04-25T11:48:21.396Z,39.90
2018-04-25T11:50:50.993Z,39.90
2018-04-25T11:53:20.241Z,38.90
2018-04-25T11:55:49.551Z,38.90
2018-04-25T11:58:19.711Z,35.40
2018-04-25T12:00:48.722Z,35.30
2018-04-25T12:03:18.077Z,34.80
2018-04-25T12:05:47.282Z,32.20
2018-04-25T12:08:17.217Z,34.20
2018-04-25T12:10:46.395Z,34.20
2018-04-25T12:13:15.768Z,34.10
2018-04-25T12:15:45.628Z,34.60
2018-04-25T12:18:14.906Z,34.50
2018-04-25T12:20:45.165Z,36.20
2018-04-25T12:23:14.404Z,36.10
2018-04-25T12:25:43.755Z,36.40
2018-04-25T12:28:12.953Z,37.20
2018-04-25T12:30:42.150Z,36.20
2018-04-25T12:33:11.332Z,36.00
2018-04-25T12:35:41.436Z,36.70
2018-04-25T12:38:10.667Z,36.70
2018-04-25T12:40:40.068Z,37.00
2018-04-25T12:43:09.232Z,37.50
2018-04-25T12:45:38.464Z,37.40
2018-04-25T12:48:07.692Z,37.70
2018-04-25T12:50:36.900Z,37.80
2018-04-25T12:53:06.108Z,38.40
2018-04-25T12:55:35.385Z,39.20
2018-04-25T12:58:04.634Z,40.30
2018-04-25T13:00:33.962Z,41.00
2018-04-25T13:03:03.259Z,41.50
2018-04-25T13:05:32.766Z,41.70
2018-04-25T13:08:02.063Z,42.50
2018-04-25T13:10:31.339Z,42.20
2018-04-25T13:13:00.748Z,42.10
2018-04-25T13:15:29.968Z,42.10
2018-04-25T13:17:59.271Z,42.40
2018-04-25T13:20:28.564Z,42.90
2018-04-25T13:22:57.969Z,43.40
2018-04-25T13:25:27.199Z,43.20
2018-04-25T13:27:57.087Z,43.90
2018-04-25T13:30:26.693Z,44.20
2018-04-25T13:32:56.636Z,43.40
2018-04-25T13:35:25.991Z,43.40
2018-04-25T13:37:55.262Z,42.90
2018-04-25T13:40:24.605Z,42.30
2018-04-25T13:42:53.677Z,42.60
2018-04-25T13:45:23.152Z,42.20
2018-04-25T13:47:52.480Z,42.90
2018-04-25T13:50:21.725Z,43.10
2018-04-25T13:52:50.923Z,42.80
2018-04-25T13:55:20.411Z,42.80
2018-04-25T13:57:49.661Z,43.10
2018-04-25T14:00:21.003Z,43.70
2018-04-25T14:02:50.357Z,43.60
2018-04-25T14:05:19.657Z,43.80
2018-04-25T14:07:48.955Z,44.30
2018-04-25T14:10:18.272Z,42.60
2018-04-25T14:12:47.465Z,42.80
2018-04-25T14:15:16.846Z,41.70
2018-04-25T14:17:46.053Z,41.20
2018-04-25T14:20:15.250Z,41.80
2018-04-25T14:22:46.410Z,41.80
2018-04-25T14:25:20.187Z,41.60
2018-04-25T14:27:49.477Z,41.20
2018-04-25T14:30:18.790Z,40.90
2018-04-25T14:32:50.924Z,41.50
2018-04-25T14:35:20.171Z,41.80
2018-04-25T14:37:49.354Z,41.60
2018-04-25T14:40:18.765Z,40.70
2018-04-25T14:42:48.079Z,40.90
2018-04-25T14:45:17.305Z,40.90
2018-04-25T14:47:46.527Z,40.50
2018-04-25T14:50:15.714Z,39.80
2018-04-25T14:52:44.880Z,40.70
2018-04-25T14:55:14.080Z,41.20
2018-04-25T14:57:43.266Z,40.70
2018-04-25T15:00:12.474Z,40.10
2018-04-25T15:02:41.684Z,40.40
2018-04-25T15:05:11.719Z,41.70
2018-04-25T15:07:41.693Z,42.20
2018-04-25T15:10:10.858Z,42.10
2018-04-25T15:12:40.156Z,42.70
2018-04-25T15:15:09.417Z,43.00
2018-04-25T15:17:42.147Z,43.60
2018-04-25T15:20:11.348Z,43.90
2018-04-25T15:22:40.817Z,44.20
2018-04-25T15:25:10.300Z,44.40
2018-04-25T15:27:39.577Z,45.30
2018-04-25T15:30:08.787Z,45.90
2018-04-25T15:32:37.955Z,46.80
2018-04-25T15:35:07.165Z,47.10
2018-04-25T15:37:36.416Z,46.70
2018-04-25T15:40:06.395Z,47.50
2018-04-25T15:42:35.679Z,47.50
2018-04-25T15:45:05.101Z,47.50
2018-04-25T15:47:35.202Z,47.20
2018-04-25T15:50:04.505Z,47.30
2018-04-25T15:52:34.716Z,48.20
2018-04-25T15:55:03.926Z,48.20
2018-04-25T15:57:36.212Z,48.00
2018-04-25T16:00:06.485Z,48.00
2018-04-25T16:02:35.688Z,48.30
2018-04-25T16:05:06.866Z,48.60
2018-04-25T16:07:36.079Z,48.70
2018-04-25T16:10:05.398Z,48.60
2018-04-25T16:12:34.747Z,47.50
2018-04-25T16:15:03.884Z,47.40
2018-04-25T16:17:33.207Z,47.10
2018-04-25T16:20:02.489Z,46.50
2018-04-25T16:22:31.955Z,45.60
2018-04-25T16:25:01.148Z,45.70
2018-04-25T16:27:30.358Z,45.50
2018-04-25T16:29:59.563Z,45.20
2018-04-25T16:32:28.771Z,45.90
2018-04-25T16:34:57.944Z,46.90
2018-04-25T16:37:27.133Z,46.80
2018-04-25T16:39:56.438Z,47.90
2018-04-25T16:42:25.652Z,47.60
2018-04-25T16:44:54.873Z,47.80
2018-04-25T16:47:24.179Z,48.90
2018-04-25T16:49:53.523Z,49.60
2018-04-25T16:52:22.722Z,50.70
2018-04-25T16:54:51.997Z,50.60
2018-04-25T16:57:21.414Z,50.60
2018-04-25T16:59:51.177Z,50.80
2018-04-25T17:02:20.377Z,51.30
2018-04-25T17:04:49.595Z,51.10
2018-04-25T17:07:19.060Z,51.30
2018-04-25T17:09:48.212Z,51.90
2018-04-25T17:12:18.248Z,51.80
2018-04-25T17:14:47.452Z,51.90
2018-04-25T17:17:17.124Z,51.50
2018-04-25T17:19:46.545Z,50.60
2018-04-25T17:22:15.759Z,50.10
2018-04-25T17:24:45.019Z,48.90
2018-04-25T17:27:15.008Z,48.10
2018-04-25T17:29:45.040Z,48.10
2018-04-25T17:32:15.375Z,46.80
2018-04-25T17:34:45.335Z,46.50
2018-04-25T17:37:14.628Z,46.40
2018-04-25T17:39:44.560Z,45.30
2018-04-25T17:42:13.755Z,45.40
2018-04-25T17:44:42.951Z,45.90
2018-04-25T17:47:18.142Z,46.90
2018-04-25T17:49:48.344Z,49.20
2018-04-25T17:52:17.741Z,49.30
2018-04-25T17:54:47.121Z,50.30
2018-04-25T17:57:16.627Z,51.00
2018-04-25T17:59:46.013Z,51.70
2018-04-25T18:02:15.520Z,52.20
2018-04-25T18:04:44.890Z,52.60
2018-04-25T18:07:14.374Z,53.30
2018-04-25T18:09:43.763Z,53.70
2018-04-25T18:12:13.052Z,54.00
2018-04-25T18:14:42.288Z,54.50
2018-04-25T18:17:12.385Z,55.00
2018-04-25T18:19:43.606Z,55.00
2018-04-25T18:22:12.843Z,55.70
2018-04-25T18:24:43.282Z,56.30
2018-04-25T18:27:13.423Z,57.30
2018-04-25T18:29:42.768Z,57.20
2018-04-25T18:32:16.586Z,57.50
2018-04-25T18:34:45.892Z,58.30
2018-04-25T18:37:15.246Z,58.40
2018-04-25T18:39:44.961Z,58.60
2018-04-25T18:42:14.392Z,58.70
2018-04-25T18:44:44.865Z,59.00
2018-04-25T18:47:14.209Z,59.20
2018-04-25T18:49:44.261Z,59.60
2018-04-25T18:52:14.307Z,60.10
2018-04-25T18:54:43.690Z,60.00
2018-04-25T18:57:14.143Z,60.50
2018-04-25T18:59:43.768Z,60.60
2018-04-25T19:02:13.068Z,61.30
2018-04-25T19:04:42.390Z,61.60
2018-04-25T19:07:12.516Z,62.70
2018-04-25T19:09:42.725Z,62.70
2018-04-25T19:12:11.956Z,63.10
2018-04-25T19:14:41.250Z,63.80
2018-04-25T19:17:10.513Z,64.00
2018-04-25T19:19:39.796Z,64.50
2018-04-25T19:22:09.024Z,64.60
2018-04-25T19:24:38.348Z,65.30
2018-04-25T19:27:07.698Z,65.50
2018-04-25T19:29:36.879Z,66.10
2018-04-25T19:32:06.249Z,66.30
2018-04-25T19:34:35.537Z,66.30
2018-04-25T19:37:06.856Z,65.80
2018-04-25T19:39:36.132Z,65.60
2018-04-25T19:42:05.523Z,65.30
2018-04-25T19:44:48.377Z,64.60
2018-04-25T19:47:17.466Z,64.60
2018-04-25T19:49:46.663Z,64.60
2018-04-25T19:52:15.855Z,65.30
2018-04-25T19:54:45.184Z,64.40
2018-04-25T19:57:14.524Z,64.50
2018-04-25T19:59:44.083Z,64.70
2018-04-25T20:02:14.298Z,65.00
2018-04-25T20:04:43.571Z,64.80
2018-04-25T20:07:12.990Z,65.20
2018-04-25T20:09:42.275Z,65.40
2018-04-25T20:12:11.507Z,65.90
2018-04-25T20:14:40.721Z,65.90
2018-04-25T20:17:10.000Z,65.40
2018-04-25T20:19:39.267Z,64.40
2018-04-25T20:22:09.948Z,63.30
2018-04-25T20:24:39.425Z,63.30
2018-04-25T20:27:09.165Z,62.70
2018-04-25T20:29:38.447Z,62.60
2018-04-25T20:32:07.623Z,62.70
2018-04-25T20:34:36.941Z,63.00
2018-04-25T20:37:06.121Z,63.70
2018-04-25T20:39:35.429Z,64.50
2018-04-25T20:42:04.817Z,65.40
2018-04-25T20:44:35.339Z,65.60
2018-04-25T20:47:04.679Z,65.80
2018-04-25T20:49:33.958Z,65.40
2018-04-25T20:52:03.261Z,65.30
2018-04-25T20:54:32.595Z,65.60
2018-04-25T20:57:01.898Z,65.90
2018-04-25T20:59:31.171Z,66.60
2018-04-25T21:02:00.351Z,66.80
2018-04-25T21:04:29.630Z,66.90
2018-04-25T21:06:59.558Z,67.30
2018-04-25T21:09:28.886Z,67.30
2018-04-25T21:11:58.073Z,67.40
2018-04-25T21:14:27.359Z,67.80
2018-04-25T21:16:56.680Z,68.20
2018-04-25T21:19:26.015Z,68.40
2018-04-25T21:21:56.049Z,69.00
2018-04-25T21:24:25.486Z,68.50
2018-04-25T21:26:54.757Z,68.40
2018-04-25T21:29:24.080Z,68.40
2018-04-25T21:31:56.990Z,68.40
2018-04-25T21:34:27.206Z,68.50
2018-04-25T21:36:57.670Z,68.50
2018-04-25T21:39:27.730Z,68.70
2018-04-25T21:41:57.065Z,68.50
2018-04-25T21:44:26.302Z,68.50
2018-04-25T21:46:55.607Z,68.50
2018-04-25T21:49:25.587Z,69.30
2018-04-25T21:51:54.905Z,69.30
2018-04-25T21:54:24.928Z,70.00
2018-04-25T21:56:54.178Z,70.00
2018-04-25T21:59:23.488Z,70.40
2018-04-25T22:01:52.678Z,70.10
2018-04-25T22:04:22.700Z,70.10
2018-04-25T22:06:51.944Z,70.10
2018-04-25T22:09:21.972Z,69.60
2018-04-25T22:11:51.300Z,69.60
2018-04-25T22:14:20.617Z,69.60
2018-04-25T22:16:49.816Z,69.60
2018-04-25T22:19:19.126Z,69.60
2018-04-25T22:21:48.329Z,69.60
2018-04-25T22:24:17.619Z,69.80
2018-04-25T22:26:46.745Z,70.00
2018-04-25T22:29:16.061Z,69.80
2018-04-25T22:31:45.442Z,69.70
2018-04-25T22:34:15.417Z,69.80
2018-04-25T22:36:45.964Z,70.10
2018-04-25T22:39:15.154Z,70.40
2018-04-25T22:41:44.435Z,70.30
2018-04-25T22:44:13.718Z,70.30
2018-04-25T22:46:42.948Z,69.80
2018-04-25T22:49:12.131Z,69.90
2018-04-25T22:51:41.413Z,69.90
2018-04-25T22:54:10.784Z,69.40
2018-04-25T22:56:40.215Z,69.50
2018-04-25T22:59:09.512Z,69.30
2018-04-25T23:01:39.916Z,69.80
2018-04-25T23:04:09.124Z,70.00
2018-04-25T23:06:39.242Z,70.10
2018-04-25T23:09:08.494Z,70.10
2018-04-25T23:11:37.773Z,70.30
2018-04-25T23:14:07.201Z,69.70
2018-04-25T23:16:36.451Z,69.20
2018-04-25T23:19:05.625Z,69.30
2018-04-25T23:21:34.833Z,68.30
2018-04-25T23:24:06.296Z,67.50
2018-04-25T23:26:35.804Z,65.90
2018-04-25T23:29:05.003Z,65.30
2018-04-25T23:31:34.184Z,64.80
2018-04-25T23:34:03.379Z,65.40
2018-04-25T23:36:32.605Z,65.40
2018-04-25T23:39:01.940Z,64.60
2018-04-25T23:41:31.253Z,65.00
2018-04-25T23:44:00.450Z,65.70
2018-04-25T23:46:29.640Z,66.60
2018-04-25T23:48:58.906Z,66.40
2018-04-25T23:51:28.147Z,66.10
2018-04-25T23:53:57.352Z,66.20
2018-04-25T23:56:26.536Z,64.30
2018-04-25T23:58:55.791Z,63.80
